sensor_id;sensor_type;location;lat;lon;timestamp;noise_LAeq;noise_LA_min;noise_LA_max;noise_LA01;noise_LA95
64545;Laerm;50936;51.660;5.616;2023-03-12T00:01:22;52.49;42.76;67.75;;
64545;Laerm;50936;51.660;5.616;2023-03-12T00:03:50;56.04;43.29;70.06;;
64545;Laerm;50936;51.660;5.616;2023-03-12T00:06:17;56.75;43.19;69.45;;
64545;Laerm;50936;51.660;5.616;2023-03-12T00:08:46;58.14;42.35;69.74;;
64545;Laerm;50936;51.660;5.616;2023-03-12T00:11:17;58.47;42.53;73.08;;
64545;Laerm;50936;51.660;5.616;2023-03-12T00:13:49;59.44;43.63;69.64;;
64545;Laerm;50936;51.660;5.616;2023-03-12T00:16:17;56.98;42.53;68.53;;
64545;Laerm;50936;51.660;5.616;2023-03-12T00:18:48;57.61;43.49;73.46;;
64545;Laerm;50936;51.660;5.616;2023-03-12T00:21:15;58.04;42.65;75.39;;
64545;Laerm;50936;51.660;5.616;2023-03-12T00:23:42;56.76;41.82;68.79;;
64545;Laerm;50936;51.660;5.616;2023-03-12T00:26:12;59.06;41.96;73.04;;
64545;Laerm;50936;51.660;5.616;2023-03-12T00:28:40;58.38;42.88;72.01;;
64545;Laerm;50936;51.660;5.616;2023-03-12T00:31:21;49.92;40.08;65.81;;
64545;Laerm;50936;51.660;5.616;2023-03-12T00:33:49;54.94;41.38;75.71;;
64545;Laerm;50936;51.660;5.616;2023-03-12T00:36:19;54.46;40.13;67.19;;
64545;Laerm;50936;51.660;5.616;2023-03-12T00:38:46;57.81;41.82;70.15;;
64545;Laerm;50936;51.660;5.616;2023-03-12T00:41:13;54.10;41.75;65.82;;
64545;Laerm;50936;51.660;5.616;2023-03-12T00:43:40;56.22;39.92;68.79;;
64545;Laerm;50936;51.660;5.616;2023-03-12T00:46:07;58.30;42.09;73.43;;
64545;Laerm;50936;51.660;5.616;2023-03-12T00:48:35;50.61;42.41;65.52;;
64545;Laerm;50936;51.660;5.616;2023-03-12T00:51:02;53.91;42.19;68.27;;
64545;Laerm;50936;51.660;5.616;2023-03-12T00:53:29;49.75;40.89;71.83;;
64545;Laerm;50936;51.660;5.616;2023-03-12T00:55:56;57.37;41.46;70.10;;
64545;Laerm;50936;51.660;5.616;2023-03-12T00:58:23;56.76;42.98;67.92;;
64545;Laerm;50936;51.660;5.616;2023-03-12T01:00:50;59.33;41.14;72.07;;
64545;Laerm;50936;51.660;5.616;2023-03-12T01:03:17;56.45;41.22;69.14;;
64545;Laerm;50936;51.660;5.616;2023-03-12T01:05:44;55.40;41.68;68.64;;
64545;Laerm;50936;51.660;5.616;2023-03-12T01:08:11;53.72;40.33;69.06;;
64545;Laerm;50936;51.660;5.616;2023-03-12T01:10:41;55.39;39.70;69.30;;
64545;Laerm;50936;51.660;5.616;2023-03-12T01:13:08;59.24;43.81;69.97;;
64545;Laerm;50936;51.660;5.616;2023-03-12T01:15:35;59.96;39.92;75.75;;
64545;Laerm;50936;51.660;5.616;2023-03-12T01:18:02;56.07;40.71;65.70;;
64545;Laerm;50936;51.660;5.616;2023-03-12T01:20:29;53.72;40.13;69.85;;
64545;Laerm;50936;51.660;5.616;2023-03-12T01:22:56;55.65;39.92;71.07;;
64545;Laerm;50936;51.660;5.616;2023-03-12T01:25:23;56.18;42.82;70.08;;
64545;Laerm;50936;51.660;5.616;2023-03-12T01:27:50;54.64;40.80;71.19;;
64545;Laerm;50936;51.660;5.616;2023-03-12T01:30:17;52.92;40.80;67.61;;
64545;Laerm;50936;51.660;5.616;2023-03-12T01:32:44;55.15;41.61;70.68;;
64545;Laerm;50936;51.660;5.616;2023-03-12T01:35:11;56.15;39.34;71.65;;
64545;Laerm;50936;51.660;5.616;2023-03-12T01:37:39;56.65;40.89;71.33;;
64545;Laerm;50936;51.660;5.616;2023-03-12T01:40:06;57.79;40.43;71.60;;
64545;Laerm;50936;51.660;5.616;2023-03-12T01:42:33;53.89;41.89;65.14;;
64545;Laerm;50936;51.660;5.616;2023-03-12T01:45:03;54.81;41.22;71.11;;
64545;Laerm;50936;51.660;5.616;2023-03-12T01:47:32;59.26;40.33;72.43;;
64545;Laerm;50936;51.660;5.616;2023-03-12T01:50:03;56.28;42.16;68.01;;
64545;Laerm;50936;51.660;5.616;2023-03-12T01:52:35;54.03;39.70;69.30;;
64545;Laerm;50936;51.660;5.616;2023-03-12T01:55:09;44.09;39.08;58.04;;
64545;Laerm;50936;51.660;5.616;2023-03-12T01:58:01;55.10;40.43;71.67;;
64545;Laerm;50936;51.660;5.616;2023-03-12T02:00:28;54.92;40.53;66.50;;
64545;Laerm;50936;51.660;5.616;2023-03-12T02:03:14;55.19;38.81;74.02;;
64545;Laerm;50936;51.660;5.616;2023-03-12T02:05:51;49.55;38.05;65.10;;
64545;Laerm;50936;51.660;5.616;2023-03-12T02:08:20;43.08;39.58;54.80;;
64545;Laerm;50936;51.660;5.616;2023-03-12T02:10:49;55.32;40.43;71.57;;
64545;Laerm;50936;51.660;5.616;2023-03-12T02:13:19;56.51;41.61;68.06;;
64545;Laerm;50936;51.660;5.616;2023-03-12T02:15:49;44.39;38.95;57.00;;
64545;Laerm;50936;51.660;5.616;2023-03-12T02:18:19;44.00;39.70;71.36;;
64545;Laerm;50936;51.660;5.616;2023-03-12T02:21:15;55.26;39.92;69.11;;
64545;Laerm;50936;51.660;5.616;2023-03-12T02:24:31;52.92;40.80;65.78;;
64545;Laerm;50936;51.660;5.616;2023-03-12T02:27:00;55.24;39.58;72.56;;
64545;Laerm;50936;51.660;5.616;2023-03-12T02:29:31;57.61;40.89;71.75;;
64545;Laerm;50936;51.660;5.616;2023-03-12T02:32:00;54.64;40.71;67.46;;
64545;Laerm;50936;51.660;5.616;2023-03-12T02:34:30;49.67;39.81;64.34;;
64545;Laerm;50936;51.660;5.616;2023-03-12T02:36:57;44.97;40.43;53.19;;
64545;Laerm;50936;51.660;5.616;2023-03-12T02:39:24;54.80;39.81;66.65;;
64545;Laerm;50936;51.660;5.616;2023-03-12T02:41:54;55.46;40.13;70.34;;
64545;Laerm;50936;51.660;5.616;2023-03-12T02:44:27;54.16;39.70;67.51;;
64545;Laerm;50936;51.660;5.616;2023-03-12T02:46:59;56.60;39.92;73.74;;
64545;Laerm;50936;51.660;5.616;2023-03-12T02:49:31;44.19;38.21;59.05;;
64545;Laerm;50936;51.660;5.616;2023-03-12T02:51:59;53.34;39.08;67.67;;
64545;Laerm;50936;51.660;5.616;2023-03-12T02:54:27;57.24;40.98;70.85;;
64545;Laerm;50936;51.660;5.616;2023-03-12T02:56:55;46.50;39.23;61.11;;
64545;Laerm;50936;51.660;5.616;2023-03-12T02:59:24;57.86;41.14;70.77;;
64545;Laerm;50936;51.660;5.616;2023-03-12T03:01:57;53.34;40.13;67.12;;
64545;Laerm;50936;51.660;5.616;2023-03-12T03:04:28;49.79;38.05;65.56;;
64545;Laerm;50936;51.660;5.616;2023-03-12T03:06:55;54.67;38.95;69.44;;
64545;Laerm;50936;51.660;5.616;2023-03-12T03:09:23;44.66;39.92;55.07;;
64545;Laerm;50936;51.660;5.616;2023-03-12T03:11:51;49.46;39.08;64.83;;
64545;Laerm;50936;51.660;5.616;2023-03-12T03:14:18;49.10;39.92;62.81;;
64545;Laerm;50936;51.660;5.616;2023-03-12T03:16:48;48.82;39.58;65.24;;
64545;Laerm;50936;51.660;5.616;2023-03-12T03:19:17;52.03;39.58;67.33;;
64545;Laerm;50936;51.660;5.616;2023-03-12T03:21:43;47.73;39.92;62.41;;
64545;Laerm;50936;51.660;5.616;2023-03-12T03:24:10;55.97;39.58;77.26;;
64545;Laerm;50936;51.660;5.616;2023-03-12T03:26:37;54.04;38.81;69.38;;
64545;Laerm;50936;51.660;5.616;2023-03-12T03:29:05;42.33;38.67;54.31;;
64545;Laerm;50936;51.660;5.616;2023-03-12T03:31:32;45.42;38.81;65.85;;
64545;Laerm;50936;51.660;5.616;2023-03-12T03:33:59;46.97;38.95;61.82;;
64545;Laerm;50936;51.660;5.616;2023-03-12T03:36:26;43.65;38.52;55.67;;
64545;Laerm;50936;51.660;5.616;2023-03-12T03:39:01;55.01;39.34;73.51;;
64545;Laerm;50936;51.660;5.616;2023-03-12T03:41:30;50.05;39.34;69.62;;
64545;Laerm;50936;51.660;5.616;2023-03-12T03:43:58;50.54;39.81;67.80;;
64545;Laerm;50936;51.660;5.616;2023-03-12T03:46:27;54.19;39.34;70.15;;
64545;Laerm;50936;51.660;5.616;2023-03-12T03:49:00;50.96;39.92;65.84;;
64545;Laerm;50936;51.660;5.616;2023-03-12T03:51:29;49.85;39.34;71.67;;
64545;Laerm;50936;51.660;5.616;2023-03-12T03:54:00;51.96;38.52;75.47;;
64545;Laerm;50936;51.660;5.616;2023-03-12T03:56:28;49.89;39.70;73.15;;
64545;Laerm;50936;51.660;5.616;2023-03-12T03:58:57;45.77;39.58;56.65;;
64545;Laerm;50936;51.660;5.616;2023-03-12T04:01:25;43.55;39.21;55.26;;
64545;Laerm;50936;51.660;5.616;2023-03-12T04:03:53;52.35;38.67;69.64;;
64545;Laerm;50936;51.660;5.616;2023-03-12T04:06:20;50.78;39.08;70.14;;
64545;Laerm;50936;51.660;5.616;2023-03-12T04:08:48;53.64;38.81;71.61;;
64545;Laerm;50936;51.660;5.616;2023-03-12T04:11:20;48.58;39.08;66.41;;
64545;Laerm;50936;51.660;5.616;2023-03-12T04:13:48;53.48;38.67;69.58;;
64545;Laerm;50936;51.660;5.616;2023-03-12T04:16:18;47.21;38.52;67.78;;
64545;Laerm;50936;51.660;5.616;2023-03-12T04:18:47;55.09;39.58;75.27;;
64545;Laerm;50936;51.660;5.616;2023-03-12T04:21:16;55.85;40.53;69.99;;
64545;Laerm;50936;51.660;5.616;2023-03-12T04:23:43;50.81;39.46;69.18;;
64545;Laerm;50936;51.660;5.616;2023-03-12T04:26:12;50.52;39.89;65.73;;
64545;Laerm;50936;51.660;5.616;2023-03-12T04:28:39;45.39;38.37;54.73;;
64545;Laerm;50936;51.660;5.616;2023-03-12T04:31:09;55.43;39.21;77.58;;
64545;Laerm;50936;51.660;5.616;2023-03-12T04:33:40;47.29;39.70;63.79;;
64545;Laerm;50936;51.660;5.616;2023-03-12T04:36:10;48.43;39.58;70.00;;
64545;Laerm;50936;51.660;5.616;2023-03-12T04:38:41;51.49;39.70;71.55;;
64545;Laerm;50936;51.660;5.616;2023-03-12T04:41:12;47.16;39.58;65.26;;
64545;Laerm;50936;51.660;5.616;2023-03-12T04:43:46;45.05;38.95;62.16;;
64545;Laerm;50936;51.660;5.616;2023-03-12T04:46:14;46.78;40.03;57.19;;
64545;Laerm;50936;51.660;5.616;2023-03-12T04:48:43;50.38;39.92;64.81;;
64545;Laerm;50936;51.660;5.616;2023-03-12T04:51:11;47.34;39.92;59.58;;
64545;Laerm;50936;51.660;5.616;2023-03-12T04:53:38;50.27;39.81;73.53;;
64545;Laerm;50936;51.660;5.616;2023-03-12T04:56:08;46.50;40.03;58.57;;
64545;Laerm;50936;51.660;5.616;2023-03-12T04:58:36;51.19;40.53;70.45;;
64545;Laerm;50936;51.660;5.616;2023-03-12T05:01:04;51.27;39.92;67.40;;
64545;Laerm;50936;51.660;5.616;2023-03-12T05:03:31;47.77;39.21;64.99;;
64545;Laerm;50936;51.660;5.616;2023-03-12T05:05:59;46.95;39.08;67.46;;
64545;Laerm;50936;51.660;5.616;2023-03-12T05:08:26;50.97;40.33;69.90;;
64545;Laerm;50936;51.660;5.616;2023-03-12T05:10:53;56.04;40.08;78.15;;
64545;Laerm;50936;51.660;5.616;2023-03-12T05:13:21;45.50;39.70;63.62;;
64545;Laerm;50936;51.660;5.616;2023-03-12T05:15:52;55.24;40.71;77.03;;
64545;Laerm;50936;51.660;5.616;2023-03-12T05:18:20;55.13;40.89;70.35;;
64545;Laerm;50936;51.660;5.616;2023-03-12T05:21:08;55.62;40.03;73.22;;
64545;Laerm;50936;51.660;5.616;2023-03-12T05:23:35;52.03;40.03;67.87;;
64545;Laerm;50936;51.660;5.616;2023-03-12T05:26:05;53.30;37.88;74.70;;
64545;Laerm;50936;51.660;5.616;2023-03-12T05:28:33;55.96;40.62;74.40;;
64545;Laerm;50936;51.660;5.616;2023-03-12T05:31:09;54.22;40.62;73.79;;
64545;Laerm;50936;51.660;5.616;2023-03-12T05:33:37;57.90;40.03;75.74;;
64545;Laerm;50936;51.660;5.616;2023-03-12T05:36:04;55.43;39.08;77.81;;
64545;Laerm;50936;51.660;5.616;2023-03-12T05:38:33;62.74;40.03;80.86;;
64545;Laerm;50936;51.660;5.616;2023-03-12T05:41:01;56.92;40.33;70.47;;
64545;Laerm;50936;51.660;5.616;2023-03-12T05:43:32;58.18;39.81;78.98;;
64545;Laerm;50936;51.660;5.616;2023-03-12T05:46:03;53.35;40.33;69.67;;
64545;Laerm;50936;51.660;5.616;2023-03-12T05:48:32;61.24;39.68;84.16;;
64545;Laerm;50936;51.660;5.616;2023-03-12T05:51:00;59.26;40.23;82.30;;
64545;Laerm;50936;51.660;5.616;2023-03-12T05:53:27;64.76;43.34;81.88;;
64545;Laerm;50936;51.660;5.616;2023-03-12T05:55:54;57.40;41.68;74.74;;
64545;Laerm;50936;51.660;5.616;2023-03-12T05:58:21;61.58;40.98;80.02;;
64545;Laerm;50936;51.660;5.616;2023-03-12T06:00:49;62.88;40.43;82.45;;
64545;Laerm;50936;51.660;5.616;2023-03-12T06:03:16;68.10;41.41;86.62;;
64545;Laerm;50936;51.660;5.616;2023-03-12T06:05:44;60.78;41.53;83.71;;
64545;Laerm;50936;51.660;5.616;2023-03-12T06:08:13;49.70;40.62;71.43;;
64545;Laerm;50936;51.660;5.616;2023-03-12T06:10:40;65.20;39.99;84.87;;
64545;Laerm;50936;51.660;5.616;2023-03-12T06:13:07;64.93;40.43;89.15;;
64545;Laerm;50936;51.660;5.616;2023-03-12T06:15:34;58.88;41.61;74.84;;
64545;Laerm;50936;51.660;5.616;2023-03-12T06:18:03;57.58;41.61;73.14;;
64545;Laerm;50936;51.660;5.616;2023-03-12T06:20:32;54.62;39.81;71.97;;
64545;Laerm;50936;51.660;5.616;2023-03-12T06:22:59;56.85;41.22;74.49;;
64545;Laerm;50936;51.660;5.616;2023-03-12T06:25:26;67.03;40.53;84.83;;
64545;Laerm;50936;51.660;5.616;2023-03-12T06:27:53;63.96;41.46;83.76;;
64545;Laerm;50936;51.660;5.616;2023-03-12T06:30:20;60.30;40.62;85.28;;
64545;Laerm;50936;51.660;5.616;2023-03-12T06:32:47;60.07;41.26;76.16;;
64545;Laerm;50936;51.660;5.616;2023-03-12T06:35:15;54.45;40.33;69.46;;
64545;Laerm;50936;51.660;5.616;2023-03-12T06:37:45;51.04;40.71;67.95;;
64545;Laerm;50936;51.660;5.616;2023-03-12T06:40:12;58.22;41.38;79.57;;
64545;Laerm;50936;51.660;5.616;2023-03-12T06:42:39;63.34;41.89;81.77;;
64545;Laerm;50936;51.660;5.616;2023-03-12T06:45:06;58.06;41.06;75.30;;
64545;Laerm;50936;51.660;5.616;2023-03-12T06:47:34;60.72;42.29;79.67;;
64545;Laerm;50936;51.660;5.616;2023-03-12T06:50:00;68.63;41.68;88.40;;
64545;Laerm;50936;51.660;5.616;2023-03-12T06:52:27;61.20;41.22;80.50;;
64545;Laerm;50936;51.660;5.616;2023-03-12T06:54:54;60.47;41.75;78.40;;
64545;Laerm;50936;51.660;5.616;2023-03-12T06:57:21;58.59;40.98;80.74;;
64545;Laerm;50936;51.660;5.616;2023-03-12T06:59:48;57.22;42.53;70.88;;
64545;Laerm;50936;51.660;5.616;2023-03-12T07:02:16;51.99;41.46;66.03;;
64545;Laerm;50936;51.660;5.616;2023-03-12T07:04:43;59.33;41.61;71.35;;
64545;Laerm;50936;51.660;5.616;2023-03-12T07:07:10;53.77;41.30;66.15;;
64545;Laerm;50936;51.660;5.616;2023-03-12T07:09:37;59.16;41.61;73.54;;
64545;Laerm;50936;51.660;5.616;2023-03-12T07:12:04;63.75;41.38;82.56;;
64545;Laerm;50936;51.660;5.616;2023-03-12T07:14:31;54.73;40.89;69.32;;
64545;Laerm;50936;51.660;5.616;2023-03-12T07:16:58;52.12;41.46;67.42;;
64545;Laerm;50936;51.660;5.616;2023-03-12T07:19:28;55.79;41.46;72.94;;
64545;Laerm;50936;51.660;5.616;2023-03-12T07:21:56;59.02;43.81;76.34;;
64545;Laerm;50936;51.660;5.616;2023-03-12T07:24:23;57.68;42.59;69.55;;
64545;Laerm;50936;51.660;5.616;2023-03-12T07:26:50;48.74;41.22;63.90;;
64545;Laerm;50936;51.660;5.616;2023-03-12T07:29:17;59.93;41.82;84.18;;
64545;Laerm;50936;51.660;5.616;2023-03-12T07:31:43;60.75;42.16;78.03;;
64545;Laerm;50936;51.660;5.616;2023-03-12T07:34:10;58.38;41.96;68.14;;
64545;Laerm;50936;51.660;5.616;2023-03-12T07:36:38;56.31;41.75;76.70;;
64545;Laerm;50936;51.660;5.616;2023-03-12T07:39:05;58.55;43.14;72.63;;
64545;Laerm;50936;51.660;5.616;2023-03-12T07:41:32;59.21;42.03;76.79;;
64545;Laerm;50936;51.660;5.616;2023-03-12T07:43:59;63.49;44.35;82.13;;
64545;Laerm;50936;51.660;5.616;2023-03-12T07:46:26;66.39;42.35;84.26;;
64545;Laerm;50936;51.660;5.616;2023-03-12T07:48:53;56.83;43.24;76.06;;
64545;Laerm;50936;51.660;5.616;2023-03-12T07:51:20;63.46;48.13;78.80;;
64545;Laerm;50936;51.660;5.616;2023-03-12T07:53:46;59.84;44.03;77.62;;
64545;Laerm;50936;51.660;5.616;2023-03-12T07:56:14;61.78;45.89;74.88;;
64545;Laerm;50936;51.660;5.616;2023-03-12T07:58:41;61.02;43.63;83.29;;
64545;Laerm;50936;51.660;5.616;2023-03-12T08:01:09;62.18;45.07;74.07;;
64545;Laerm;50936;51.660;5.616;2023-03-12T08:03:36;63.98;44.97;76.11;;
64545;Laerm;50936;51.660;5.616;2023-03-12T08:06:05;58.84;44.31;74.01;;
64545;Laerm;50936;51.660;5.616;2023-03-12T08:08:32;64.16;44.16;82.12;;
64545;Laerm;50936;51.660;5.616;2023-03-12T08:11:03;63.33;45.77;80.78;;
64545;Laerm;50936;51.660;5.616;2023-03-12T08:13:30;63.43;50.19;74.61;;
64545;Laerm;50936;51.660;5.616;2023-03-12T08:15:57;61.78;46.76;71.92;;
64545;Laerm;50936;51.660;5.616;2023-03-12T08:18:24;64.20;51.15;73.41;;
64545;Laerm;50936;51.660;5.616;2023-03-12T08:20:53;65.54;44.62;85.01;;
64545;Laerm;50936;51.660;5.616;2023-03-12T08:23:21;64.87;51.32;76.03;;
64545;Laerm;50936;51.660;5.616;2023-03-12T08:25:48;65.44;47.55;80.10;;
64545;Laerm;50936;51.660;5.616;2023-03-12T08:28:17;62.72;47.59;78.81;;
64545;Laerm;50936;51.660;5.616;2023-03-12T08:30:53;62.11;47.96;73.38;;
64545;Laerm;50936;51.660;5.616;2023-03-12T08:33:21;62.11;48.49;72.58;;
64545;Laerm;50936;51.660;5.616;2023-03-12T08:35:49;63.88;50.75;71.95;;
64545;Laerm;50936;51.660;5.616;2023-03-12T08:38:16;63.57;48.69;73.89;;
64545;Laerm;50936;51.660;5.616;2023-03-12T08:40:42;64.51;49.71;78.08;;
64545;Laerm;50936;51.660;5.616;2023-03-12T08:43:10;61.51;47.54;72.98;;
64545;Laerm;50936;51.660;5.616;2023-03-12T08:45:37;62.73;45.77;75.38;;
64545;Laerm;50936;51.660;5.616;2023-03-12T08:48:06;65.01;50.10;77.75;;
64545;Laerm;50936;51.660;5.616;2023-03-12T08:50:33;62.84;46.20;71.39;;
64545;Laerm;50936;51.660;5.616;2023-03-12T08:53:00;64.50;51.84;74.84;;
64545;Laerm;50936;51.660;5.616;2023-03-12T08:55:27;66.52;53.48;77.49;;
64545;Laerm;50936;51.660;5.616;2023-03-12T08:57:55;65.37;49.19;75.92;;
64545;Laerm;50936;51.660;5.616;2023-03-12T09:00:23;62.66;47.81;72.36;;
64545;Laerm;50936;51.660;5.616;2023-03-12T09:02:50;64.20;49.20;72.68;;
64545;Laerm;50936;51.660;5.616;2023-03-12T09:05:19;62.71;49.39;75.55;;
64545;Laerm;50936;51.660;5.616;2023-03-12T09:07:46;63.83;48.84;71.73;;
64545;Laerm;50936;51.660;5.616;2023-03-12T09:10:13;62.95;48.46;78.20;;
64545;Laerm;50936;51.660;5.616;2023-03-12T09:12:40;65.40;51.64;73.02;;
64545;Laerm;50936;51.660;5.616;2023-03-12T09:15:08;63.68;51.75;69.53;;
64545;Laerm;50936;51.660;5.616;2023-03-12T09:17:36;65.79;56.06;71.85;;
64545;Laerm;50936;51.660;5.616;2023-03-12T09:20:05;64.36;53.39;74.47;;
64545;Laerm;50936;51.660;5.616;2023-03-12T09:22:35;66.27;53.05;72.62;;
64545;Laerm;50936;51.660;5.616;2023-03-12T09:25:05;64.52;50.34;74.65;;
64545;Laerm;50936;51.660;5.616;2023-03-12T09:27:45;64.84;52.55;84.42;;
64545;Laerm;50936;51.660;5.616;2023-03-12T09:30:22;64.47;49.94;79.49;;
64545;Laerm;50936;51.660;5.616;2023-03-12T09:32:52;65.08;54.07;74.80;;
64545;Laerm;50936;51.660;5.616;2023-03-12T09:35:19;62.98;47.90;73.61;;
64545;Laerm;50936;51.660;5.616;2023-03-12T09:37:49;63.90;51.69;72.13;;
64545;Laerm;50936;51.660;5.616;2023-03-12T09:40:21;62.67;48.52;71.73;;
64545;Laerm;50936;51.660;5.616;2023-03-12T09:43:01;63.18;45.42;71.57;;
64545;Laerm;50936;51.660;5.616;2023-03-12T09:45:36;62.28;49.35;76.91;;
64545;Laerm;50936;51.660;5.616;2023-03-12T09:48:11;62.19;46.10;74.34;;
64545;Laerm;50936;51.660;5.616;2023-03-12T09:50:47;65.44;52.35;76.76;;
64545;Laerm;50936;51.660;5.616;2023-03-12T09:53:38;64.86;51.76;78.04;;
64545;Laerm;50936;51.660;5.616;2023-03-12T09:56:15;63.68;50.83;71.37;;
64545;Laerm;50936;51.660;5.616;2023-03-12T09:58:44;64.66;54.35;74.40;;
64545;Laerm;50936;51.660;5.616;2023-03-12T10:01:52;63.76;50.46;77.30;;
64545;Laerm;50936;51.660;5.616;2023-03-12T10:04:43;62.93;49.02;71.45;;
64545;Laerm;50936;51.660;5.616;2023-03-12T10:07:42;64.29;49.35;86.31;;
64545;Laerm;50936;51.660;5.616;2023-03-12T10:16:06;65.09;52.60;80.76;;
64545;Laerm;50936;51.660;5.616;2023-03-12T10:19:16;64.98;52.51;81.61;;
64545;Laerm;50936;51.660;5.616;2023-03-12T10:22:04;64.33;51.07;76.26;;
64545;Laerm;50936;51.660;5.616;2023-03-12T10:24:59;64.11;51.70;79.60;;
64545;Laerm;50936;51.660;5.616;2023-03-12T10:27:34;64.45;55.30;79.49;;
64545;Laerm;50936;51.660;5.616;2023-03-12T10:30:17;64.09;49.15;73.69;;
64545;Laerm;50936;51.660;5.616;2023-03-12T10:32:54;65.83;53.39;84.99;;
64545;Laerm;50936;51.660;5.616;2023-03-12T10:35:27;63.43;52.74;75.13;;
64545;Laerm;50936;51.660;5.616;2023-03-12T10:38:02;64.81;56.36;78.75;;
64545;Laerm;50936;51.660;5.616;2023-03-12T10:40:40;64.70;52.72;77.00;;
64545;Laerm;50936;51.660;5.616;2023-03-12T10:43:06;65.36;51.81;89.10;;
64545;Laerm;50936;51.660;5.616;2023-03-12T10:48:27;65.56;56.39;75.31;;
64545;Laerm;50936;51.660;5.616;2023-03-12T10:51:03;64.31;48.42;77.74;;
64545;Laerm;50936;51.660;5.616;2023-03-12T10:53:37;65.25;53.86;82.55;;
64545;Laerm;50936;51.660;5.616;2023-03-12T10:56:15;65.74;53.53;80.86;;
64545;Laerm;50936;51.660;5.616;2023-03-12T10:58:46;64.08;49.52;82.02;;
64545;Laerm;50936;51.660;5.616;2023-03-12T11:03:42;65.32;53.95;83.30;;
64545;Laerm;50936;51.660;5.616;2023-03-12T11:06:25;67.82;54.08;96.31;;
64545;Laerm;50936;51.660;5.616;2023-03-12T11:09:25;65.31;49.93;83.91;;
64545;Laerm;50936;51.660;5.616;2023-03-12T11:11:51;66.56;52.50;85.66;;
64545;Laerm;50936;51.660;5.616;2023-03-12T11:14:23;65.63;50.81;81.03;;
64545;Laerm;50936;51.660;5.616;2023-03-12T11:16:52;63.19;52.56;78.24;;
64545;Laerm;50936;51.660;5.616;2023-03-12T11:19:32;64.36;52.63;79.97;;
64545;Laerm;50936;51.660;5.616;2023-03-12T11:22:03;65.00;54.10;75.12;;
64545;Laerm;50936;51.660;5.616;2023-03-12T11:24:31;63.06;51.34;76.65;;
64545;Laerm;50936;51.660;5.616;2023-03-12T11:27:09;65.69;54.35;75.49;;
64545;Laerm;50936;51.660;5.616;2023-03-12T11:29:49;65.90;55.14;74.10;;
64545;Laerm;50936;51.660;5.616;2023-03-12T11:32:28;64.75;54.98;76.19;;
64545;Laerm;50936;51.660;5.616;2023-03-12T11:34:59;63.15;53.69;71.35;;
64545;Laerm;50936;51.660;5.616;2023-03-12T11:38:02;63.74;53.25;72.41;;
64545;Laerm;50936;51.660;5.616;2023-03-12T12:00:23;65.16;59.27;71.83;;
64545;Laerm;50936;51.660;5.616;2023-03-12T12:03:58;64.54;55.56;74.82;;
64545;Laerm;50936;51.660;5.616;2023-03-12T12:06:42;65.13;55.74;77.52;;
64545;Laerm;50936;51.660;5.616;2023-03-12T12:15:05;65.05;51.70;82.09;;
64545;Laerm;50936;51.660;5.616;2023-03-12T12:21:01;65.05;54.76;74.07;;
64545;Laerm;50936;51.660;5.616;2023-03-12T12:26:25;64.59;53.23;74.66;;
64545;Laerm;50936;51.660;5.616;2023-03-12T12:29:18;65.71;54.49;83.27;;
64545;Laerm;50936;51.660;5.616;2023-03-12T12:31:55;66.17;56.69;84.68;;
64545;Laerm;50936;51.660;5.616;2023-03-12T12:37:28;64.29;51.44;77.71;;
64545;Laerm;50936;51.660;5.616;2023-03-12T12:40:20;65.22;54.79;80.08;;
64545;Laerm;50936;51.660;5.616;2023-03-12T12:45:38;63.50;52.32;69.75;;
64545;Laerm;50936;51.660;5.616;2023-03-12T12:48:16;65.04;52.79;80.46;;
64545;Laerm;50936;51.660;5.616;2023-03-12T12:50:48;64.46;53.40;75.04;;
64545;Laerm;50936;51.660;5.616;2023-03-12T12:53:33;63.12;53.11;76.48;;
64545;Laerm;50936;51.660;5.616;2023-03-12T13:02:00;64.12;52.31;79.22;;
64545;Laerm;50936;51.660;5.616;2023-03-12T13:04:36;64.69;52.12;82.97;;
64545;Laerm;50936;51.660;5.616;2023-03-12T13:09:49;66.17;54.01;84.21;;
64545;Laerm;50936;51.660;5.616;2023-03-12T13:14:54;64.11;53.56;73.32;;
64545;Laerm;50936;51.660;5.616;2023-03-12T13:20:32;65.39;53.66;76.64;;
64545;Laerm;50936;51.660;5.616;2023-03-12T13:23:49;65.11;50.46;79.32;;
64545;Laerm;50936;51.660;5.616;2023-03-12T13:26:36;65.28;57.11;80.36;;
64545;Laerm;50936;51.660;5.616;2023-03-12T13:31:54;64.67;50.56;76.75;;
64545;Laerm;50936;51.660;5.616;2023-03-12T13:37:00;65.16;52.03;84.48;;
64545;Laerm;50936;51.660;5.616;2023-03-12T13:39:37;65.05;52.19;77.88;;
64545;Laerm;50936;51.660;5.616;2023-03-12T13:44:51;65.58;52.91;80.22;;
64545;Laerm;50936;51.660;5.616;2023-03-12T13:47:27;65.59;53.97;83.20;;
64545;Laerm;50936;51.660;5.616;2023-03-12T13:50:07;67.37;51.05;89.18;;
64545;Laerm;50936;51.660;5.616;2023-03-12T13:55:18;64.43;54.30;77.17;;
64545;Laerm;50936;51.660;5.616;2023-03-12T13:57:58;65.11;56.16;83.42;;
64545;Laerm;50936;51.660;5.616;2023-03-12T14:00:31;64.76;52.68;85.39;;
64545;Laerm;50936;51.660;5.616;2023-03-12T14:03:12;62.69;51.20;70.23;;
64545;Laerm;50936;51.660;5.616;2023-03-12T14:05:53;62.24;50.61;72.45;;
64545;Laerm;50936;51.660;5.616;2023-03-12T14:09:07;64.09;52.42;80.63;;
64545;Laerm;50936;51.660;5.616;2023-03-12T14:17:25;64.70;53.19;80.80;;
64545;Laerm;50936;51.660;5.616;2023-03-12T14:22:32;62.90;52.06;80.56;;
64545;Laerm;50936;51.660;5.616;2023-03-12T14:25:12;64.11;52.07;79.12;;
64545;Laerm;50936;51.660;5.616;2023-03-12T14:27:45;63.83;52.09;76.96;;
64545;Laerm;50936;51.660;5.616;2023-03-12T14:30:32;66.85;52.67;85.71;;
64545;Laerm;50936;51.660;5.616;2023-03-12T14:33:02;63.89;51.28;84.05;;
64545;Laerm;50936;51.660;5.616;2023-03-12T14:35:41;62.40;51.35;73.28;;
64545;Laerm;50936;51.660;5.616;2023-03-12T14:38:23;64.26;50.25;74.80;;
64545;Laerm;50936;51.660;5.616;2023-03-12T14:40:59;64.67;50.97;84.09;;
64545;Laerm;50936;51.660;5.616;2023-03-12T14:43:33;64.15;51.42;81.97;;
64545;Laerm;50936;51.660;5.616;2023-03-12T14:46:05;62.62;52.23;76.00;;
64545;Laerm;50936;51.660;5.616;2023-03-12T14:48:39;64.32;52.74;85.13;;
64545;Laerm;50936;51.660;5.616;2023-03-12T14:51:06;62.89;51.38;75.26;;
64545;Laerm;50936;51.660;5.616;2023-03-12T14:53:36;63.02;55.06;79.22;;
64545;Laerm;50936;51.660;5.616;2023-03-12T14:56:13;64.36;52.20;83.74;;
64545;Laerm;50936;51.660;5.616;2023-03-12T14:58:47;62.37;49.40;79.24;;
64545;Laerm;50936;51.660;5.616;2023-03-12T15:01:23;63.81;53.70;75.22;;
64545;Laerm;50936;51.660;5.616;2023-03-12T15:03:57;62.83;50.74;80.11;;
64545;Laerm;50936;51.660;5.616;2023-03-12T15:06:37;63.21;49.02;78.55;;
64545;Laerm;50936;51.660;5.616;2023-03-12T15:09:06;69.09;53.01;89.85;;
64545;Laerm;50936;51.660;5.616;2023-03-12T15:11:39;68.84;50.31;92.92;;
64545;Laerm;50936;51.660;5.616;2023-03-12T15:14:12;65.04;55.25;77.55;;
64545;Laerm;50936;51.660;5.616;2023-03-12T15:16:42;66.98;54.69;83.62;;
64545;Laerm;50936;51.660;5.616;2023-03-12T15:19:13;65.32;49.49;83.49;;
64545;Laerm;50936;51.660;5.616;2023-03-12T15:21:41;68.95;49.40;89.38;;
64545;Laerm;50936;51.660;5.616;2023-03-12T15:24:12;63.49;48.63;82.70;;
64545;Laerm;50936;51.660;5.616;2023-03-12T15:26:40;63.80;49.80;82.61;;
64545;Laerm;50936;51.660;5.616;2023-03-12T15:29:25;66.86;53.19;89.11;;
64545;Laerm;50936;51.660;5.616;2023-03-12T15:31:59;62.96;52.68;75.51;;